Time;durP1;ratioP1;P1;durP2;ratioP2;P2;SDS_P1;SDS_P2;PMS_P1;PMS_P2;Temp;Humidity;BMP_temperature;BMP_pressure;BME280_temperature;BME280_humidity;BME280_pressure;Samples;Min_cycle;Max_cycle;Signal;HPM_P1;HPM_P2
2022/05/13 00:00:42;;;;;;;;;;;;;;;21.65;42.20;101705.44;5078983;28;20030;-81
2022/05/13 00:03:07;;;;;;;;;;;;;;;21.65;42.13;101704.63;5076369;28;19961;-81
2022/05/13 00:05:33;;;;;;;;;;;;;;;21.65;42.32;101705.44;5076577;28;19934;-82
2022/05/13 00:07:58;;;;;;;;;;;;;;;21.65;42.25;101704.63;5058787;28;19988;-81
2022/05/13 00:10:24;;;;;;;;;;;;;;;21.64;41.89;101697.47;5076617;28;19981;-80
2022/05/13 00:12:50;;;;;;;;;;;;;;;21.64;42.09;101697.47;5075940;28;19931;-81
2022/05/13 00:15:17;;;;;;;;;;;;;;;21.63;41.95;101696.66;5075708;28;20268;-81
2022/05/13 00:17:42;;;;;;;;;;;;;;;21.64;42.28;101697.47;5076417;28;19973;-81
2022/05/13 00:20:08;;;;;;;;;;;;;;;21.64;42.32;101697.47;5075099;28;19916;-81
2022/05/13 00:22:33;;;;;;;;;;;;;;;21.62;42.39;101692.28;5077623;28;19923;-81
2022/05/13 00:24:59;;;;;;;;;;;;;;;21.61;42.18;101688.69;5075174;28;19947;-81
2022/05/13 00:27:25;;;;;;;;;;;;;;;21.61;42.43;101694.19;5076059;28;19942;-81
2022/05/13 00:29:50;;;;;;;;;;;;;;;21.61;42.10;101688.69;5076188;28;19967;-80
2022/05/13 00:32:16;;;;;;;;;;;;;;;21.61;42.35;101691.44;5076729;28;19942;-81
2022/05/13 00:34:41;;;;;;;;;;;;;;;21.61;41.99;101696.16;5076673;28;19927;-81
2022/05/13 00:37:07;;;;;;;;;;;;;;;21.60;42.41;101698.06;5075270;28;19958;-81
2022/05/13 00:39:32;;;;;;;;;;;;;;;21.60;42.41;101695.31;5076751;28;20379;-81
2022/05/13 00:42:11;;;;;;;;;;;;;;;21.60;42.51;101691.78;5074771;28;20087;-81
2022/05/13 00:44:36;;;;;;;;;;;;;;;21.60;42.53;101695.31;5075413;28;20284;-81
2022/05/13 00:47:02;;;;;;;;;;;;;;;21.60;42.41;101697.28;5057874;28;19950;-81
2022/05/13 00:49:27;;;;;;;;;;;;;;;21.59;42.24;101679.13;5074801;28;20130;-81
2022/05/13 00:51:53;;;;;;;;;;;;;;;21.58;42.41;101697.56;5075755;28;19939;-81
2022/05/13 00:54:18;;;;;;;;;;;;;;;21.59;42.26;101687.38;5074535;28;19920;-81
2022/05/13 00:56:45;;;;;;;;;;;;;;;21.58;42.23;101683.00;5075163;28;19932;-81
2022/05/13 00:59:14;;;;;;;;;;;;;;;21.58;42.34;101685.75;5075062;28;20092;-82
2022/05/13 01:01:39;;;;;;;;;;;;;;;21.58;42.61;101691.25;5075478;28;19930;-82
2022/05/13 01:04:09;;;;;;;;;;;;;;;21.57;42.50;101687.69;5075818;28;19974;-81
2022/05/13 01:06:35;;;;;;;;;;;;;;;21.57;42.52;101682.19;5075396;28;19962;-82
2022/05/13 01:09:00;;;;;;;;;;;;;;;21.58;42.43;101685.75;5057771;28;19924;-82
2022/05/13 01:11:27;;;;;;;;;;;;;;;21.58;42.51;101678.31;5074737;28;19950;-80
2022/05/13 01:13:57;;;;;;;;;;;;;;;21.56;42.49;101679.72;5075565;28;19927;-82
2022/05/13 01:16:23;;;;;;;;;;;;;;;21.56;42.38;101674.22;5074288;28;19968;-81
2022/05/13 01:18:48;;;;;;;;;;;;;;;21.55;42.67;101678.91;5075089;28;20402;-81
2022/05/13 01:21:18;;;;;;;;;;;;;;;21.55;42.56;101678.91;5075229;28;19916;-81
2022/05/13 01:23:44;;;;;;;;;;;;;;;21.55;42.62;101676.16;5075503;28;19923;-82
2022/05/13 01:26:22;;;;;;;;;;;;;;;21.55;42.43;101678.91;5075053;28;19961;-81
2022/05/13 01:28:51;;;;;;;;;;;;;;;21.54;42.58;101674.50;5074964;28;20028;-82
2022/05/13 01:31:24;;;;;;;;;;;;;;;21.55;42.64;101680.84;5075461;28;20035;-81
2022/05/13 01:33:50;;;;;;;;;;;;;;;21.54;42.50;101680.00;5075418;28;19916;-81
2022/05/13 01:36:15;;;;;;;;;;;;;;;21.53;42.64;101674.81;5074922;28;20446;-81
2022/05/13 01:38:41;;;;;;;;;;;;;;;21.53;42.46;101675.63;5074650;28;19943;-81
2022/05/13 01:41:08;;;;;;;;;;;;;;;21.53;42.57;101685.81;5073409;28;20305;-81
2022/05/13 01:43:33;;;;;;;;;;;;;;;21.53;42.74;101680.31;5074393;28;19990;-82
2022/05/13 01:45:59;;;;;;;;;;;;;;;21.53;42.64;101683.06;5073680;28;20348;-81
2022/05/13 01:48:26;;;;;;;;;;;;;;;21.52;42.80;101685.00;5075164;28;19964;-81
2022/05/13 01:50:52;;;;;;;;;;;;;;;21.52;42.59;101684.16;5074512;28;19926;-82
2022/05/13 01:53:17;;;;;;;;;;;;;;;21.51;42.77;101694.34;5073559;28;19916;-81
2022/05/13 01:55:42;;;;;;;;;;;;;;;21.51;42.72;101686.09;5073869;28;19932;-81
2022/05/13 01:58:19;;;;;;;;;;;;;;;21.50;42.54;101678.97;5072955;28;19928;-81
2022/05/13 02:00:45;;;;;;;;;;;;;;;21.50;42.97;101692.72;5075183;28;19916;-81
2022/05/13 02:05:55;;;;;;;;;;;;;;;21.51;42.81;101685.28;5074407;28;20414;-82
2022/05/13 02:08:21;;;;;;;;;;;;;;;21.49;42.93;101674.56;5073911;28;19920;-81
2022/05/13 02:10:46;;;;;;;;;;;;;;;21.51;42.63;101682.53;5074161;28;19938;-81
2022/05/13 02:13:12;;;;;;;;;;;;;;;21.49;42.75;101677.31;5056653;28;20364;-81
2022/05/13 02:15:37;;;;;;;;;;;;;;;21.49;42.91;101674.56;5073079;28;20341;-81
2022/05/13 02:18:03;;;;;;;;;;;;;;;21.49;42.70;101677.31;5074163;28;19955;-81
2022/05/13 02:20:28;;;;;;;;;;;;;;;21.49;42.80;101673.75;5072938;28;19999;-81
2022/05/13 02:22:53;;;;;;;;;;;;;;;21.48;42.51;101670.19;5074167;28;19943;-81
2022/05/13 02:25:19;;;;;;;;;;;;;;;21.47;42.87;101671.31;5073874;28;19984;-81
2022/05/13 02:27:44;;;;;;;;;;;;;;;21.47;42.75;101671.31;5072869;28;20390;-82
2022/05/13 02:30:10;;;;;;;;;;;;;;;21.48;42.95;101672.94;5072790;28;19927;-81
2022/05/13 02:32:35;;;;;;;;;;;;;;;21.48;42.71;101674.88;5074051;28;19971;-80
2022/05/13 02:35:00;;;;;;;;;;;;;;;21.47;43.08;101679.56;5072425;28;20331;-81
2022/05/13 02:37:26;;;;;;;;;;;;;;;21.47;42.80;101675.97;5072991;28;19957;-81
2022/05/13 02:39:51;;;;;;;;;;;;;;;21.46;42.72;101669.66;5072404;28;19966;-81
2022/05/13 02:42:17;;;;;;;;;;;;;;;21.46;42.97;101675.16;5072988;28;19978;-81
2022/05/13 02:44:42;;;;;;;;;;;;;;;21.46;42.75;101672.41;5072677;28;19963;-81
2022/05/13 02:47:07;;;;;;;;;;;;;;;21.46;43.04;101677.91;5072837;28;20067;-81
2022/05/13 02:49:33;;;;;;;;;;;;;;;21.46;43.10;101683.41;5073936;28;19931;-81
2022/05/13 02:51:58;;;;;;;;;;;;;;;21.45;42.83;101673.53;5073159;28;19940;-80
2022/05/13 02:54:23;;;;;;;;;;;;;;;21.46;43.10;101686.16;5055788;28;19998;-81
2022/05/13 02:56:49;;;;;;;;;;;;;;;21.46;43.00;101677.91;5076922;28;19969;-81
2022/05/13 02:59:14;;;;;;;;;;;;;;;21.46;43.06;101682.59;5077848;28;19924;-81
2022/05/13 03:01:39;;;;;;;;;;;;;;;21.45;43.13;101684.53;5078191;28;19938;-81
2022/05/13 03:04:04;;;;;;;;;;;;;;;21.45;43.14;101672.72;5076849;28;19950;-81
2022/05/13 03:06:30;;;;;;;;;;;;;;;21.45;43.06;101687.28;5076530;28;19917;-81
2022/05/13 03:08:56;;;;;;;;;;;;;;;21.45;42.96;101669.97;5078231;28;20336;-81
2022/05/13 03:11:21;;;;;;;;;;;;;;;21.44;43.05;101674.63;5077685;28;19959;-81
2022/05/13 03:13:50;;;;;;;;;;;;;;;21.44;43.10;101671.06;5076291;28;19921;-81
2022/05/13 03:16:21;;;;;;;;;;;;;;;21.44;43.03;101663.63;5077597;28;19930;-81
2022/05/13 03:18:47;;;;;;;;;;;;;;;21.44;43.03;101665.56;5078037;28;19927;-81
2022/05/13 03:21:12;;;;;;;;;;;;;;;21.44;43.08;101658.13;5077566;28;19924;-81
2022/05/13 03:23:38;;;;;;;;;;;;;;;21.44;43.23;101651.81;5076873;28;19947;-79
2022/05/13 03:26:03;;;;;;;;;;;;;;;21.43;43.28;101656.50;5077904;28;20353;-81
2022/05/13 03:28:29;;;;;;;;;;;;;;;21.43;43.19;101647.44;5060638;28;19927;-81
2022/05/13 03:30:54;;;;;;;;;;;;;;;21.43;43.16;101652.94;5076284;28;20025;-80
2022/05/13 03:33:20;;;;;;;;;;;;;;;21.43;43.09;101653.75;5076421;28;19921;-81
2022/05/13 03:35:45;;;;;;;;;;;;;;;21.43;43.05;101663.94;5077127;28;19924;-81
2022/05/13 03:38:11;;;;;;;;;;;;;;;21.43;43.21;101658.44;5077068;28;19916;-80
2022/05/13 03:40:36;;;;;;;;;;;;;;;21.42;43.10;101657.63;5077503;28;19932;-80
2022/05/13 03:43:05;;;;;;;;;;;;;;;21.43;43.17;101661.19;5077177;28;20101;-81
2022/05/13 03:45:32;;;;;;;;;;;;;;;21.43;42.99;101658.44;5076973;28;20417;-82
2022/05/13 03:47:57;;;;;;;;;;;;;;;21.42;43.10;101660.38;5076548;28;20011;-81
2022/05/13 03:50:23;;;;;;;;;;;;;;;21.42;42.99;101660.38;5076924;28;20370;-81
2022/05/13 03:52:48;;;;;;;;;;;;;;;21.42;43.36;101659.53;5075521;28;19920;-81
2022/05/13 03:55:13;;;;;;;;;;;;;;;21.42;43.05;101659.53;5076606;28;20360;-81
2022/05/13 03:57:39;;;;;;;;;;;;;;;21.41;43.15;101661.47;5075838;28;19947;-80
2022/05/13 04:00:05;;;;;;;;;;;;;;;21.41;43.37;101664.22;5075681;28;20320;-81
2022/05/13 04:02:30;;;;;;;;;;;;;;;21.41;43.22;101666.97;5076666;28;20382;-81
2022/05/13 04:10:24;;;;;;;;;;;;;;;21.41;43.30;101666.16;5076881;28;19952;-81
2022/05/13 04:18:17;;;;;;;;;;;;;;;21.41;43.16;101668.91;5076542;28;19946;-82
2022/05/13 04:20:42;;;;;;;;;;;;;;;21.39;43.22;101667.28;5075045;28;20465;-81
2022/05/13 04:23:07;;;;;;;;;;;;;;;21.40;43.36;101676.34;5076859;28;20276;-81
2022/05/13 04:25:33;;;;;;;;;;;;;;;21.39;43.10;101678.28;5075420;28;19938;-81
2022/05/13 04:27:58;;;;;;;;;;;;;;;21.39;43.38;101671.94;5076455;28;20287;-81
2022/05/13 04:30:24;;;;;;;;;;;;;;;21.39;43.42;101664.53;5080970;28;19966;-81
2022/05/13 04:32:49;;;;;;;;;;;;;;;21.39;43.38;101669.19;5088142;28;20263;-80
2022/05/13 04:35:15;;;;;;;;;;;;;;;21.39;43.40;101677.44;5069224;28;19977;-81
2022/05/13 04:37:41;;;;;;;;;;;;;;;21.38;43.37;101679.38;5083487;28;20376;-81
2022/05/13 04:40:06;;;;;;;;;;;;;;;21.39;43.13;101680.19;5075004;28;19963;-81
2022/05/13 04:42:50;;;;;;;;;;;;;;;21.39;43.41;101689.28;5075889;28;19942;-82
2022/05/13 04:45:27;;;;;;;;;;;;;;;21.39;43.25;101686.53;5075537;28;19966;-82
2022/05/13 04:48:15;;;;;;;;;;;;;;;21.38;43.34;101695.00;5076545;28;19956;-81
2022/05/13 04:50:41;;;;;;;;;;;;;;;21.39;43.29;101693.91;5075062;28;20031;-81
2022/05/13 04:53:07;;;;;;;;;;;;;;;21.38;43.47;101695.84;5075765;28;19938;-81
2022/05/13 04:55:32;;;;;;;;;;;;;;;21.38;43.29;101706.00;5074816;28;19942;-81
2022/05/13 04:57:58;;;;;;;;;;;;;;;21.38;43.38;101709.59;5075596;28;20261;-83
2022/05/13 05:00:23;;;;;;;;;;;;;;;21.38;43.24;101708.75;5074420;28;19953;-81
2022/05/13 05:02:48;;;;;;;;;;;;;;;21.38;43.43;101706.84;5058422;28;19988;-81
2022/05/13 05:05:13;;;;;;;;;;;;;;;21.38;43.60;101712.34;5074693;28;20333;-82
2022/05/13 05:07:39;;;;;;;;;;;;;;;21.37;43.27;101721.69;5074156;28;20333;-81
2022/05/13 05:10:04;;;;;;;;;;;;;;;21.38;43.56;101723.34;5076069;28;20474;-82
2022/05/13 05:12:30;;;;;;;;;;;;;;;21.37;43.46;101723.63;5074170;28;19920;-81
2022/05/13 05:14:55;;;;;;;;;;;;;;;21.38;43.23;101728.00;5057279;28;19921;-80
2022/05/13 05:17:20;;;;;;;;;;;;;;;21.37;43.47;101720.88;5057241;28;19999;-82
2022/05/13 05:19:45;;;;;;;;;;;;;;;21.37;43.47;101731.88;5073387;28;19994;-81
2022/05/13 05:22:11;;;;;;;;;;;;;;;21.37;43.49;101737.38;5075448;28;20367;-81
2022/05/13 05:24:36;;;;;;;;;;;;;;;21.37;43.47;101734.63;5074400;28;20315;-81
2022/05/13 05:27:01;;;;;;;;;;;;;;;21.37;43.36;101745.59;5075240;28;20030;-81
2022/05/13 05:29:26;;;;;;;;;;;;;;;21.37;43.59;101742.84;5073950;28;19947;-81
2022/05/13 05:31:52;;;;;;;;;;;;;;;21.37;43.51;101740.94;5073277;28;19936;-81
2022/05/13 05:34:18;;;;;;;;;;;;;;;21.37;43.46;101746.41;5073749;28;19931;-80
2022/05/13 05:36:43;;;;;;;;;;;;;;;21.36;43.57;101744.75;5074064;28;19943;-80
2022/05/13 05:39:08;;;;;;;;;;;;;;;21.37;43.32;101751.09;5072989;28;19996;-80
2022/05/13 05:41:34;;;;;;;;;;;;;;;21.37;43.36;101756.59;5073738;28;19921;-80
2022/05/13 05:43:59;;;;;;;;;;;;;;;21.37;43.65;101756.59;5074228;28;20063;-80
2022/05/13 05:46:24;;;;;;;;;;;;;;;21.36;43.42;101757.69;5073562;28;19947;-82
2022/05/13 05:48:49;;;;;;;;;;;;;;;21.37;43.38;101756.59;5075010;28;19943;-80
2022/05/13 05:51:15;;;;;;;;;;;;;;;21.37;43.31;101770.34;5073611;28;19921;-80
2022/05/13 05:59:18;;;;;;;;;;;;;;;21.38;43.62;101771.97;5073765;28;20400;-80
2022/05/13 06:01:43;;;;;;;;;;;;;;;21.37;43.72;101773.09;5074438;28;19945;-80
2022/05/13 06:04:08;;;;;;;;;;;;;;;21.37;43.64;101770.34;5056458;28;19946;-80
2022/05/13 06:06:34;;;;;;;;;;;;;;;21.38;43.77;101769.22;5056236;28;20029;-81
2022/05/13 06:08:59;;;;;;;;;;;;;;;21.37;43.43;101779.41;5073071;28;19917;-80
2022/05/13 06:11:25;;;;;;;;;;;;;;;21.38;43.43;101782.97;5074389;28;20437;-80
2022/05/13 06:13:54;;;;;;;;;;;;;;;21.38;43.40;101783.81;5074261;28;19942;-80
2022/05/13 06:16:24;;;;;;;;;;;;;;;21.39;43.87;101790.13;5074662;28;19935;-81
2022/05/13 06:18:49;;;;;;;;;;;;;;;21.39;43.78;101787.38;5074099;28;19939;-80
2022/05/13 06:21:14;;;;;;;;;;;;;;;21.39;43.80;101790.97;5074074;28;19920;-80
2022/05/13 06:23:40;;;;;;;;;;;;;;;21.40;43.51;101791.78;5072920;28;20011;-80
2022/05/13 06:26:05;;;;;;;;;;;;;;;21.40;43.83;101789.03;5074332;28;19954;-79
2022/05/13 06:28:31;;;;;;;;;;;;;;;21.41;43.71;101793.41;5073775;28;19916;-80
2022/05/13 06:30:56;;;;;;;;;;;;;;;21.41;43.67;101796.16;5073778;28;19927;-79
2022/05/13 06:33:22;;;;;;;;;;;;;;;21.42;43.56;101791.47;5073299;28;19931;-81
2022/05/13 06:35:48;;;;;;;;;;;;;;;21.42;43.80;101796.97;5072688;28;19956;-81
2022/05/13 06:38:20;;;;;;;;;;;;;;;21.43;43.57;101798.63;5072687;28;19937;-81
2022/05/13 06:40:46;;;;;;;;;;;;;;;21.42;43.89;101795.06;5073330;28;19970;-81
2022/05/13 06:43:13;;;;;;;;;;;;;;;21.43;43.66;101802.19;5071608;28;21275;-85
2022/05/13 06:45:39;;;;;;;;;;;;;;;21.44;43.63;101805.75;5072932;28;19920;-86
2022/05/13 06:48:05;;;;;;;;;;;;;;;21.45;43.71;101812.91;5072951;28;19921;-86
2022/05/13 06:50:30;;;;;;;;;;;;;;;21.46;44.18;101809.84;5074293;28;20376;-91
2022/05/13 06:52:55;;;;;;;;;;;;;;;21.47;43.97;101811.50;5075123;28;20013;-87
2022/05/13 06:55:20;;;;;;;;;;;;;;;21.50;44.00;101810.91;5075297;28;20283;-89
2022/05/13 06:57:45;;;;;;;;;;;;;;;21.51;44.33;101809.78;5056010;28;19935;-78
2022/05/13 07:00:11;;;;;;;;;;;;;;;21.54;44.46;101811.13;5072055;28;19950;-79
2022/05/13 07:02:37;;;;;;;;;;;;;;;21.56;44.56;101815.22;5072174;28;19928;-77
2022/05/13 07:05:03;;;;;;;;;;;;;;;21.58;44.57;101809.47;5073055;28;19946;-78
2022/05/13 07:07:28;;;;;;;;;;;;;;;21.60;44.80;101810.81;5072386;28;19953;-78
2022/05/13 07:09:54;;;;;;;;;;;;;;;21.63;45.00;101811.34;5055659;28;20035;-76
2022/05/13 07:12:19;;;;;;;;;;;;;;;21.65;44.63;101817.38;5073812;28;19920;-78
2022/05/13 07:14:44;;;;;;;;;;;;;;;21.65;44.93;101809.94;5072127;28;19920;-80
2022/05/13 07:17:09;;;;;;;;;;;;;;;21.67;44.80;101813.22;5073274;28;20336;-79
2022/05/13 07:19:35;;;;;;;;;;;;;;;21.70;45.09;101817.31;5072222;28;19953;-78
2022/05/13 07:22:03;;;;;;;;;;;;;;;21.70;44.81;101820.88;5073475;28;20393;-79
2022/05/13 07:24:28;;;;;;;;;;;;;;;21.71;45.12;101817.00;5056051;28;19956;-79
2022/05/13 07:26:53;;;;;;;;;;;;;;;21.73;44.93;101822.22;5073478;28;19946;-79
2022/05/13 07:29:19;;;;;;;;;;;;;;;21.74;44.96;101829.34;5071761;28;19985;-78
2022/05/13 07:31:44;;;;;;;;;;;;;;;21.75;45.03;101820.81;5074224;28;19931;-79
2022/05/13 07:34:12;;;;;;;;;;;;;;;21.77;45.22;101828.75;5072509;28;20407;-85
2022/05/13 07:36:40;;;;;;;;;;;;;;;21.78;45.17;101827.66;5073328;28;19920;-84
2022/05/13 07:41:49;;;;;;;;;;;;;;;21.78;45.28;101824.91;5072823;28;19991;-86
2022/05/13 07:44:14;;;;;;;;;;;;;;;21.80;45.26;101839.19;5075535;28;19997;-89
2022/05/13 07:46:40;;;;;;;;;;;;;;;21.81;45.00;101838.06;5075664;28;19916;-79
2022/05/13 07:49:06;;;;;;;;;;;;;;;21.81;45.10;101836.13;5075439;28;19917;-81
2022/05/13 07:51:32;;;;;;;;;;;;;;;21.81;45.04;101835.31;5076399;28;20006;-78
2022/05/13 07:53:57;;;;;;;;;;;;;;;21.82;45.10;101842.44;5076769;28;19981;-86
2022/05/13 07:56:22;;;;;;;;;;;;;;;21.83;45.01;101855.94;5076296;28;19934;-88
2022/05/13 07:58:48;;;;;;;;;;;;;;;21.83;45.06;101844.94;5075478;28;19930;-81
2022/05/13 08:01:14;;;;;;;;;;;;;;;21.83;44.96;101850.44;5076107;28;19916;-83
2022/05/13 08:03:40;;;;;;;;;;;;;;;21.85;45.00;101854.81;5076722;28;19917;-82
2022/05/13 08:06:06;;;;;;;;;;;;;;;21.85;45.11;101841.91;5075096;28;19930;-82
2022/05/13 08:08:40;;;;;;;;;;;;;;;21.86;44.98;101848.22;5075381;28;19948;-83
2022/05/13 08:11:07;;;;;;;;;;;;;;;21.85;44.98;101852.91;5076886;28;19966;-81
2022/05/13 08:13:34;;;;;;;;;;;;;;;21.86;45.30;101857.28;5076312;28;19923;-83
2022/05/13 08:16:00;;;;;;;;;;;;;;;21.86;45.17;101857.28;5075690;28;19991;-84
2022/05/13 08:18:26;;;;;;;;;;;;;;;21.86;45.18;101859.22;5075341;28;19923;-83
2022/05/13 08:20:51;;;;;;;;;;;;;;;21.86;45.18;101853.72;5058984;28;19955;-83
2022/05/13 08:23:17;;;;;;;;;;;;;;;21.85;45.21;101858.41;5074783;28;19925;-83
2022/05/13 08:25:44;;;;;;;;;;;;;;;21.85;45.15;101863.91;5076427;28;19927;-84
2022/05/13 08:28:10;;;;;;;;;;;;;;;21.85;44.93;101860.31;5075025;28;19920;-83
2022/05/13 08:30:36;;;;;;;;;;;;;;;21.83;44.82;101864.19;5074652;28;20406;-86
2022/05/13 08:33:02;;;;;;;;;;;;;;;21.85;45.14;101869.41;5074806;28;19917;-82
2022/05/13 08:35:28;;;;;;;;;;;;;;;21.83;45.12;101866.94;5075575;28;19931;-84
2022/05/13 08:37:54;;;;;;;;;;;;;;;21.83;44.72;101855.94;5074819;28;19978;-81
2022/05/13 08:40:36;;;;;;;;;;;;;;;21.83;45.06;101869.69;5073915;28;19967;-83
2022/05/13 08:43:09;;;;;;;;;;;;;;;21.83;44.97;101877.13;5075022;28;19965;-81
2022/05/13 08:45:35;;;;;;;;;;;;;;;21.82;44.89;101868.06;5074702;28;19935;-84
2022/05/13 08:48:01;;;;;;;;;;;;;;;21.82;44.68;101875.47;5075139;28;19923;-86
2022/05/13 08:50:30;;;;;;;;;;;;;;;21.81;44.61;101879.34;5076299;28;20022;-85
2022/05/13 08:53:11;;;;;;;;;;;;;;;21.81;44.52;101874.66;5075249;28;19927;-84
2022/05/13 08:55:47;;;;;;;;;;;;;;;21.81;44.70;101873.84;5075956;28;19927;-85
2022/05/13 08:58:19;;;;;;;;;;;;;;;21.81;44.74;101868.34;5074281;28;20026;-85
2022/05/13 09:00:47;;;;;;;;;;;;;;;21.80;44.57;101873.00;5075622;28;19951;-85
2022/05/13 09:03:25;;;;;;;;;;;;;;;21.81;44.84;101873.84;5076045;28;19933;-84
2022/05/13 09:05:53;;;;;;;;;;;;;;;21.80;44.78;101867.53;5078977;28;19949;-86
2022/05/13 09:08:20;;;;;;;;;;;;;;;21.80;44.54;101877.72;5077863;28;19923;-84
2022/05/13 09:11:09;;;;;;;;;;;;;;;21.80;44.70;101874.97;5077748;28;20498;-83
2022/05/13 09:13:45;;;;;;;;;;;;;;;21.79;44.71;101876.84;5046560;28;19922;-85
2022/05/13 09:16:10;;;;;;;;;;;;;;;21.79;44.38;101870.53;5074750;28;20007;-86
2022/05/13 09:18:39;;;;;;;;;;;;;;;21.79;44.37;101870.53;5074241;28;19956;-86
2022/05/13 09:21:12;;;;;;;;;;;;;;;21.78;44.64;101877.16;5073904;28;19953;-86
2022/05/13 09:23:38;;;;;;;;;;;;;;;21.79;44.32;101881.53;5074658;28;20325;-86
2022/05/13 09:26:03;;;;;;;;;;;;;;;21.78;44.25;101883.47;5073893;28;19939;-85
2022/05/13 09:28:30;;;;;;;;;;;;;;;21.78;44.28;101874.41;5073496;28;20273;-85
2022/05/13 09:31:04;;;;;;;;;;;;;;;21.77;44.18;101881.84;5073546;28;20405;-85
2022/05/13 09:33:37;;;;;;;;;;;;;;;21.78;44.24;101890.91;5073457;28;19931;-86
2022/05/13 09:36:07;;;;;;;;;;;;;;;21.77;44.40;101889.25;5074335;28;19917;-85
2022/05/13 09:38:41;;;;;;;;;;;;;;;21.77;44.12;101878.25;5074489;28;19970;-84
2022/05/13 09:41:08;;;;;;;;;;;;;;;21.76;44.25;101884.88;5072702;28;20277;-86
2022/05/13 09:43:41;;;;;;;;;;;;;;;21.77;44.13;101886.50;5074058;28;19978;-84
2022/05/13 09:46:11;;;;;;;;;;;;;;;21.77;44.34;101875.50;5073577;28;20367;-85
2022/05/13 09:48:38;;;;;;;;;;;;;;;21.76;44.42;101888.44;5073099;28;19921;-86
2022/05/13 09:51:22;;;;;;;;;;;;;;;21.76;43.99;101890.38;5073942;28;20274;-84
2022/05/13 09:54:06;;;;;;;;;;;;;;;21.76;44.29;101899.44;5074935;28;19943;-86
2022/05/13 09:56:35;;;;;;;;;;;;;;;21.76;44.13;101891.19;5073074;28;20374;-86
2022/05/13 09:59:04;;;;;;;;;;;;;;;21.76;43.97;101891.19;5072911;28;20470;-85
2022/05/13 10:01:29;;;;;;;;;;;;;;;21.76;44.00;101898.63;5073230;28;19920;-85
2022/05/13 10:04:08;;;;;;;;;;;;;;;21.76;44.00;101901.38;5056393;28;19984;-86
2022/05/13 10:06:37;;;;;;;;;;;;;;;21.75;44.00;101891.50;5073482;28;19939;-85
2022/05/13 10:14:51;;;;;;;;;;;;;;;21.75;43.70;101895.06;5074349;28;20023;-86
2022/05/13 10:17:21;;;;;;;;;;;;;;;21.74;43.77;101896.16;5072611;28;19979;-85
2022/05/13 10:20:04;;;;;;;;;;;;;;;21.75;43.71;101892.31;5072862;28;19954;-86
2022/05/13 10:22:35;;;;;;;;;;;;;;;21.75;43.81;101888.75;5073425;28;20313;-86
2022/05/13 10:25:02;;;;;;;;;;;;;;;21.74;43.91;101890.66;5073753;28;20007;-85
2022/05/13 10:27:36;;;;;;;;;;;;;;;21.75;43.70;101897.00;5072473;28;20364;-85
2022/05/13 10:30:14;;;;;;;;;;;;;;;21.75;43.83;101897.00;5072628;28;20374;-84
2022/05/13 10:32:39;;;;;;;;;;;;;;;21.74;43.64;101898.91;5072852;28;19923;-84
2022/05/13 10:35:07;;;;;;;;;;;;;;;21.76;43.78;101893.94;5074405;28;19927;-87
2022/05/13 10:37:54;;;;;;;;;;;;;;;21.76;43.63;101899.44;5072613;28;19930;-88
2022/05/13 10:40:20;;;;;;;;;;;;;;;21.77;43.52;101897.50;5072606;28;19926;-83
2022/05/13 10:43:04;;;;;;;;;;;;;;;21.76;43.91;101896.69;5073865;28;19969;-87
2022/05/13 10:45:31;;;;;;;;;;;;;;;21.77;43.83;101905.75;5072511;28;19920;-87
2022/05/13 10:48:03;;;;;;;;;;;;;;;21.77;43.71;101895.59;5072242;28;19917;-87
2022/05/13 10:50:36;;;;;;;;;;;;;;;21.77;43.82;101894.75;5072679;28;19986;-86
2022/05/13 10:53:02;;;;;;;;;;;;;;;21.78;43.80;101890.91;5072160;28;19916;-87
2022/05/13 10:55:33;;;;;;;;;;;;;;;21.78;43.51;101888.16;5072524;28;19978;-85
2022/05/13 10:58:19;;;;;;;;;;;;;;;21.78;43.53;101883.47;5073906;28;19942;-85
2022/05/13 11:01:03;;;;;;;;;;;;;;;21.78;43.56;101885.41;5052227;28;19984;-87
2022/05/13 11:03:47;;;;;;;;;;;;;;;21.79;43.48;101882.38;5073093;28;19923;-87
2022/05/13 11:06:12;;;;;;;;;;;;;;;21.80;43.75;101907.97;5072194;28;20374;-87
2022/05/13 11:08:49;;;;;;;;;;;;;;;21.79;43.54;101907.13;5073859;28;19927;-87
2022/05/13 11:11:30;;;;;;;;;;;;;;;21.80;43.82;101906.03;5071989;28;19931;-86
2022/05/13 11:14:01;;;;;;;;;;;;;;;21.80;43.74;101900.53;5072948;28;20288;-87
2022/05/13 11:16:40;;;;;;;;;;;;;;;21.79;43.41;101893.38;5074506;28;19952;-88
2022/05/13 11:19:21;;;;;;;;;;;;;;;21.80;43.66;101900.53;5078247;28;20345;-87
2022/05/13 11:21:52;;;;;;;;;;;;;;;21.79;43.37;101895.31;5076055;28;20467;-88
2022/05/13 11:27:14;;;;;;;;;;;;;;;21.80;43.42;101891.47;5077112;28;19927;-87
2022/05/13 11:29:47;;;;;;;;;;;;;;;21.80;43.61;101899.72;5075915;28;19976;-89
2022/05/13 11:32:24;;;;;;;;;;;;;;;21.79;43.23;101893.38;5076687;28;19974;-88
2022/05/13 11:35:08;;;;;;;;;;;;;;;21.80;43.17;101895.03;5076261;28;19930;-91
2022/05/13 11:37:36;;;;;;;;;;;;;;;21.79;42.99;101901.63;5078406;28;19921;-93
2022/05/13 11:40:20;;;;;;;;;;;;;;;21.81;43.13;101895.84;5076956;28;19948;-89
2022/05/13 11:45:41;;;;;;;;;;;;;;;21.82;43.26;101900.22;5077696;28;19939;-91
2022/05/13 11:48:16;;;;;;;;;;;;;;;21.82;43.52;101902.97;5078340;28;19929;-90
2022/05/13 11:50:41;;;;;;;;;;;;;;;21.83;43.26;101904.63;5077793;28;19995;-90
2022/05/13 11:53:06;;;;;;;;;;;;;;;21.83;43.54;101905.44;5060238;28;20365;-87
2022/05/13 11:55:51;;;;;;;;;;;;;;;21.84;43.22;101906.25;5082203;28;19917;-84
2022/05/13 11:58:35;;;;;;;;;;;;;;;21.85;43.58;101907.06;5096551;28;19920;-86
2022/05/13 12:01:00;;;;;;;;;;;;;;;21.85;43.32;101899.66;5079417;28;19920;-87
2022/05/13 12:03:25;;;;;;;;;;;;;;;21.86;43.21;101900.47;5080865;28;19975;-84
2022/05/13 12:06:03;;;;;;;;;;;;;;;21.86;43.32;101898.53;5078554;28;19948;-89
2022/05/13 12:08:33;;;;;;;;;;;;;;;21.87;43.34;101902.09;5078354;28;20275;-91
2022/05/13 12:11:01;;;;;;;;;;;;;;;21.87;43.31;101891.91;5078625;28;19986;-90
2022/05/13 12:13:29;;;;;;;;;;;;;;;21.88;43.35;101899.06;5077678;28;20377;-86
2022/05/13 12:16:13;;;;;;;;;;;;;;;21.89;43.54;101899.88;5076566;28;19976;-91
2022/05/13 12:18:46;;;;;;;;;;;;;;;21.89;43.31;101903.44;5077491;28;20015;-91
2022/05/13 12:21:26;;;;;;;;;;;;;;;21.89;43.68;101900.69;5077404;28;19948;-90
2022/05/13 12:24:04;;;;;;;;;;;;;;;21.90;43.38;101899.59;5076394;28;19917;-91
2022/05/13 12:26:48;;;;;;;;;;;;;;;21.91;43.46;101898.47;5077717;28;19927;-89
2022/05/13 12:29:20;;;;;;;;;;;;;;;21.91;43.49;101897.66;5076734;28;19946;-91
2022/05/13 12:31:46;;;;;;;;;;;;;;;21.92;43.68;101896.53;5077435;28;20025;-89
2022/05/13 12:39:51;;;;;;;;;;;;;;;21.93;43.45;101901.75;5075706;28;19959;-92
2022/05/13 12:42:19;;;;;;;;;;;;;;;21.94;43.80;101895.13;5075466;28;20002;-88
2022/05/13 12:44:58;;;;;;;;;;;;;;;21.95;43.53;101895.97;5076932;28;19972;-90
2022/05/13 12:47:31;;;;;;;;;;;;;;;21.95;43.74;101899.53;5076831;28;19939;-89
2022/05/13 12:50:15;;;;;;;;;;;;;;;21.96;43.61;101892.91;5076375;28;19931;-90
2022/05/13 12:52:41;;;;;;;;;;;;;;;21.97;43.45;101891.81;5075917;28;20344;-90
2022/05/13 12:55:23;;;;;;;;;;;;;;;21.97;43.44;101899.25;5076782;28;20397;-89
2022/05/13 12:58:08;;;;;;;;;;;;;;;21.98;43.50;101887.13;5075380;28;20326;-91
2022/05/13 13:00:35;;;;;;;;;;;;;;;21.98;43.76;101884.38;5058660;28;19955;-89
2022/05/13 13:03:03;;;;;;;;;;;;;;;21.98;43.51;101898.97;5075356;28;20015;-91
2022/05/13 13:05:30;;;;;;;;;;;;;;;21.98;43.46;101884.38;5077082;28;20414;-90
2022/05/13 13:08:01;;;;;;;;;;;;;;;21.98;43.85;101876.94;5076356;28;20057;-89
2022/05/13 13:10:27;;;;;;;;;;;;;;;21.99;43.55;101875.81;5075285;28;20378;-90
2022/05/13 13:13:00;;;;;;;;;;;;;;;22.00;43.57;101871.16;5075165;28;19964;-89
2022/05/13 13:15:29;;;;;;;;;;;;;;;22.00;43.56;101869.22;5076327;28;19958;-90
2022/05/13 13:17:54;;;;;;;;;;;;;;;21.99;43.54;101864.81;5076352;28;19970;-90
2022/05/13 13:20:20;;;;;;;;;;;;;;;22.01;43.77;101873.59;5076131;28;20015;-91